sensor_id;sensor_type;location;lat;lon;timestamp;P1;durP1;ratioP1;P2;durP2;ratioP2
46719;SDS011;32452;51.382;-0.002;2023-08-31T00:02:31;9.27;;;2.63;;
46719;SDS011;32452;51.382;-0.002;2023-08-31T00:05:18;8.43;;;2.65;;
46719;SDS011;32452;51.382;-0.002;2023-08-31T00:08:05;7.07;;;2.80;;
46719;SDS011;32452;51.382;-0.002;2023-08-31T00:10:58;8.70;;;3.28;;
46719;SDS011;32452;51.382;-0.002;2023-08-31T00:13:49;9.75;;;2.60;;
46719;SDS011;32452;51.382;-0.002;2023-08-31T00:16:34;8.48;;;2.47;;
46719;SDS011;32452;51.382;-0.002;2023-08-31T00:19:21;7.68;;;2.88;;
46719;SDS011;32452;51.382;-0.002;2023-08-31T00:22:07;5.45;;;2.20;;
46719;SDS011;32452;51.382;-0.002;2023-08-31T00:24:54;7.80;;;2.80;;
46719;SDS011;32452;51.382;-0.002;2023-08-31T00:27:58;7.88;;;2.60;;
46719;SDS011;32452;51.382;-0.002;2023-08-31T00:30:49;8.48;;;3.15;;
46719;SDS011;32452;51.382;-0.002;2023-08-31T00:33:37;11.25;;;2.70;;
46719;SDS011;32452;51.382;-0.002;2023-08-31T00:36:44;7.22;;;3.22;;
46719;SDS011;32452;51.382;-0.002;2023-08-31T00:39:39;6.28;;;2.70;;
46719;SDS011;32452;51.382;-0.002;2023-08-31T00:42:25;8.30;;;2.85;;
46719;SDS011;32452;51.382;-0.002;2023-08-31T00:45:11;11.13;;;2.72;;
46719;SDS011;32452;51.382;-0.002;2023-08-31T00:47:56;7.15;;;2.85;;
46719;SDS011;32452;51.382;-0.002;2023-08-31T00:50:42;14.15;;;3.67;;
46719;SDS011;32452;51.382;-0.002;2023-08-31T00:53:33;10.27;;;2.83;;
46719;SDS011;32452;51.382;-0.002;2023-08-31T00:56:29;9.00;;;2.70;;
46719;SDS011;32452;51.382;-0.002;2023-08-31T00:59:28;8.15;;;2.83;;
46719;SDS011;32452;51.382;-0.002;2023-08-31T01:02:17;5.07;;;2.40;;
46719;SDS011;32452;51.382;-0.002;2023-08-31T01:11:19;7.97;;;3.15;;
46719;SDS011;32452;51.382;-0.002;2023-08-31T01:14:14;7.00;;;2.95;;
46719;SDS011;32452;51.382;-0.002;2023-08-31T01:17:06;8.50;;;3.30;;
46719;SDS011;32452;51.382;-0.002;2023-08-31T01:19:54;6.05;;;2.58;;
46719;SDS011;32452;51.382;-0.002;2023-08-31T01:22:47;7.38;;;2.67;;
46719;SDS011;32452;51.382;-0.002;2023-08-31T01:25:40;11.55;;;2.90;;
46719;SDS011;32452;51.382;-0.002;2023-08-31T01:28:28;10.93;;;3.00;;
46719;SDS011;32452;51.382;-0.002;2023-08-31T01:31:13;7.38;;;2.55;;
46719;SDS011;32452;51.382;-0.002;2023-08-31T01:34:03;9.15;;;2.70;;
46719;SDS011;32452;51.382;-0.002;2023-08-31T01:36:51;7.05;;;3.10;;
46719;SDS011;32452;51.382;-0.002;2023-08-31T01:39:46;9.10;;;2.83;;
46719;SDS011;32452;51.382;-0.002;2023-08-31T01:42:37;7.82;;;2.83;;
46719;SDS011;32452;51.382;-0.002;2023-08-31T01:45:23;9.63;;;3.25;;
46719;SDS011;32452;51.382;-0.002;2023-08-31T01:48:11;6.97;;;2.78;;
46719;SDS011;32452;51.382;-0.002;2023-08-31T01:50:58;9.57;;;3.10;;
46719;SDS011;32452;51.382;-0.002;2023-08-31T01:53:44;9.48;;;2.70;;
46719;SDS011;32452;51.382;-0.002;2023-08-31T01:56:30;8.30;;;2.95;;
46719;SDS011;32452;51.382;-0.002;2023-08-31T01:59:15;7.72;;;2.78;;
46719;SDS011;32452;51.382;-0.002;2023-08-31T02:02:01;10.65;;;3.15;;
46719;SDS011;32452;51.382;-0.002;2023-08-31T02:04:47;8.75;;;2.78;;
46719;SDS011;32452;51.382;-0.002;2023-08-31T02:07:32;7.00;;;2.50;;
46719;SDS011;32452;51.382;-0.002;2023-08-31T02:10:18;7.75;;;2.85;;
46719;SDS011;32452;51.382;-0.002;2023-08-31T02:13:04;8.55;;;2.97;;
46719;SDS011;32452;51.382;-0.002;2023-08-31T02:15:53;6.82;;;2.97;;
46719;SDS011;32452;51.382;-0.002;2023-08-31T02:18:38;7.38;;;3.20;;
46719;SDS011;32452;51.382;-0.002;2023-08-31T02:21:24;5.82;;;2.25;;
46719;SDS011;32452;51.382;-0.002;2023-08-31T02:24:10;6.03;;;2.50;;
46719;SDS011;32452;51.382;-0.002;2023-08-31T02:26:55;5.78;;;2.60;;
46719;SDS011;32452;51.382;-0.002;2023-08-31T02:29:41;7.03;;;2.60;;
46719;SDS011;32452;51.382;-0.002;2023-08-31T02:32:27;5.93;;;2.92;;
46719;SDS011;32452;51.382;-0.002;2023-08-31T02:35:12;7.38;;;3.00;;
46719;SDS011;32452;51.382;-0.002;2023-08-31T02:37:58;9.20;;;3.17;;
46719;SDS011;32452;51.382;-0.002;2023-08-31T02:40:45;8.65;;;3.00;;
46719;SDS011;32452;51.382;-0.002;2023-08-31T02:43:32;9.68;;;3.47;;
46719;SDS011;32452;51.382;-0.002;2023-08-31T02:46:17;6.18;;;2.53;;
46719;SDS011;32452;51.382;-0.002;2023-08-31T02:49:03;7.57;;;3.00;;
46719;SDS011;32452;51.382;-0.002;2023-08-31T02:51:49;6.60;;;2.90;;
46719;SDS011;32452;51.382;-0.002;2023-08-31T02:54:35;9.52;;;2.85;;
46719;SDS011;32452;51.382;-0.002;2023-08-31T02:57:20;8.52;;;3.08;;
46719;SDS011;32452;51.382;-0.002;2023-08-31T03:00:07;12.63;;;3.22;;
46719;SDS011;32452;51.382;-0.002;2023-08-31T03:02:58;11.68;;;3.20;;
46719;SDS011;32452;51.382;-0.002;2023-08-31T03:05:44;6.55;;;3.00;;
46719;SDS011;32452;51.382;-0.002;2023-08-31T03:08:30;8.18;;;3.15;;
46719;SDS011;32452;51.382;-0.002;2023-08-31T03:11:16;10.00;;;2.90;;
46719;SDS011;32452;51.382;-0.002;2023-08-31T03:14:01;9.68;;;3.80;;
46719;SDS011;32452;51.382;-0.002;2023-08-31T03:16:47;10.32;;;2.88;;
46719;SDS011;32452;51.382;-0.002;2023-08-31T03:19:33;7.97;;;3.25;;
46719;SDS011;32452;51.382;-0.002;2023-08-31T03:22:19;8.52;;;2.70;;
46719;SDS011;32452;51.382;-0.002;2023-08-31T03:25:05;7.80;;;2.85;;
46719;SDS011;32452;51.382;-0.002;2023-08-31T03:27:51;6.75;;;2.95;;
46719;SDS011;32452;51.382;-0.002;2023-08-31T03:30:36;7.93;;;2.95;;
46719;SDS011;32452;51.382;-0.002;2023-08-31T03:33:22;10.07;;;3.40;;
46719;SDS011;32452;51.382;-0.002;2023-08-31T03:36:08;8.60;;;3.58;;
46719;SDS011;32452;51.382;-0.002;2023-08-31T03:38:53;8.98;;;3.35;;
46719;SDS011;32452;51.382;-0.002;2023-08-31T03:41:39;8.00;;;2.85;;
46719;SDS011;32452;51.382;-0.002;2023-08-31T03:44:25;8.00;;;3.35;;
46719;SDS011;32452;51.382;-0.002;2023-08-31T03:47:10;9.82;;;2.97;;
46719;SDS011;32452;51.382;-0.002;2023-08-31T03:49:56;10.70;;;3.13;;
46719;SDS011;32452;51.382;-0.002;2023-08-31T03:52:41;9.07;;;2.90;;
46719;SDS011;32452;51.382;-0.002;2023-08-31T03:55:27;8.05;;;3.08;;
46719;SDS011;32452;51.382;-0.002;2023-08-31T03:58:13;7.85;;;3.00;;
46719;SDS011;32452;51.382;-0.002;2023-08-31T04:00:58;9.70;;;2.67;;
46719;SDS011;32452;51.382;-0.002;2023-08-31T04:03:44;7.75;;;3.15;;
46719;SDS011;32452;51.382;-0.002;2023-08-31T04:06:30;5.85;;;2.67;;
46719;SDS011;32452;51.382;-0.002;2023-08-31T04:09:16;7.00;;;3.13;;
46719;SDS011;32452;51.382;-0.002;2023-08-31T04:12:02;8.30;;;2.97;;
46719;SDS011;32452;51.382;-0.002;2023-08-31T04:14:47;9.95;;;3.00;;
46719;SDS011;32452;51.382;-0.002;2023-08-31T04:17:33;13.25;;;3.67;;
46719;SDS011;32452;51.382;-0.002;2023-08-31T04:20:19;8.27;;;3.17;;
46719;SDS011;32452;51.382;-0.002;2023-08-31T04:23:04;8.52;;;3.30;;
46719;SDS011;32452;51.382;-0.002;2023-08-31T04:25:50;9.00;;;2.88;;
46719;SDS011;32452;51.382;-0.002;2023-08-31T04:28:36;12.45;;;3.00;;
46719;SDS011;32452;51.382;-0.002;2023-08-31T04:31:22;9.00;;;2.92;;
46719;SDS011;32452;51.382;-0.002;2023-08-31T04:34:07;9.32;;;2.83;;
46719;SDS011;32452;51.382;-0.002;2023-08-31T04:36:53;8.88;;;3.60;;
46719;SDS011;32452;51.382;-0.002;2023-08-31T04:39:39;10.27;;;3.30;;
46719;SDS011;32452;51.382;-0.002;2023-08-31T04:42:25;8.95;;;3.20;;
46719;SDS011;32452;51.382;-0.002;2023-08-31T04:45:11;7.68;;;3.00;;
46719;SDS011;32452;51.382;-0.002;2023-08-31T04:47:57;11.25;;;3.40;;
46719;SDS011;32452;51.382;-0.002;2023-08-31T04:50:43;9.48;;;3.15;;
46719;SDS011;32452;51.382;-0.002;2023-08-31T04:53:29;7.43;;;3.00;;
46719;SDS011;32452;51.382;-0.002;2023-08-31T04:56:17;12.07;;;3.28;;
46719;SDS011;32452;51.382;-0.002;2023-08-31T04:59:03;9.35;;;3.17;;
46719;SDS011;32452;51.382;-0.002;2023-08-31T05:01:48;9.73;;;3.50;;
46719;SDS011;32452;51.382;-0.002;2023-08-31T05:04:34;7.57;;;2.88;;
46719;SDS011;32452;51.382;-0.002;2023-08-31T05:07:19;8.65;;;2.80;;
46719;SDS011;32452;51.382;-0.002;2023-08-31T05:10:06;10.93;;;3.08;;
46719;SDS011;32452;51.382;-0.002;2023-08-31T05:12:52;9.45;;;3.35;;
46719;SDS011;32452;51.382;-0.002;2023-08-31T05:15:37;9.90;;;3.13;;
46719;SDS011;32452;51.382;-0.002;2023-08-31T05:18:23;8.85;;;3.25;;
46719;SDS011;32452;51.382;-0.002;2023-08-31T05:21:09;9.48;;;3.15;;
46719;SDS011;32452;51.382;-0.002;2023-08-31T05:23:55;7.90;;;3.08;;
46719;SDS011;32452;51.382;-0.002;2023-08-31T05:26:40;6.75;;;2.58;;
46719;SDS011;32452;51.382;-0.002;2023-08-31T05:29:26;6.18;;;2.10;;
46719;SDS011;32452;51.382;-0.002;2023-08-31T05:32:11;9.73;;;2.90;;
46719;SDS011;32452;51.382;-0.002;2023-08-31T05:34:57;6.95;;;2.88;;
46719;SDS011;32452;51.382;-0.002;2023-08-31T05:37:44;8.93;;;3.13;;
46719;SDS011;32452;51.382;-0.002;2023-08-31T05:40:29;7.95;;;2.90;;
46719;SDS011;32452;51.382;-0.002;2023-08-31T05:43:15;4.97;;;2.78;;
46719;SDS011;32452;51.382;-0.002;2023-08-31T05:46:01;6.05;;;2.97;;
46719;SDS011;32452;51.382;-0.002;2023-08-31T05:48:47;5.53;;;3.00;;
46719;SDS011;32452;51.382;-0.002;2023-08-31T05:51:33;11.32;;;2.97;;
46719;SDS011;32452;51.382;-0.002;2023-08-31T05:54:18;8.93;;;3.17;;
46719;SDS011;32452;51.382;-0.002;2023-08-31T05:57:04;7.78;;;3.17;;
46719;SDS011;32452;51.382;-0.002;2023-08-31T05:59:50;10.93;;;3.13;;
46719;SDS011;32452;51.382;-0.002;2023-08-31T06:02:36;8.30;;;2.65;;
46719;SDS011;32452;51.382;-0.002;2023-08-31T06:05:21;5.45;;;2.67;;
46719;SDS011;32452;51.382;-0.002;2023-08-31T06:08:07;7.50;;;2.88;;
46719;SDS011;32452;51.382;-0.002;2023-08-31T06:10:52;9.77;;;3.45;;
46719;SDS011;32452;51.382;-0.002;2023-08-31T06:13:38;8.35;;;3.20;;
46719;SDS011;32452;51.382;-0.002;2023-08-31T06:16:25;9.27;;;3.45;;
46719;SDS011;32452;51.382;-0.002;2023-08-31T06:19:10;7.80;;;3.13;;
46719;SDS011;32452;51.382;-0.002;2023-08-31T06:22:00;8.27;;;3.85;;
46719;SDS011;32452;51.382;-0.002;2023-08-31T06:24:46;6.80;;;3.20;;
46719;SDS011;32452;51.382;-0.002;2023-08-31T06:27:31;8.45;;;3.00;;
46719;SDS011;32452;51.382;-0.002;2023-08-31T06:30:17;8.65;;;2.75;;
46719;SDS011;32452;51.382;-0.002;2023-08-31T06:33:03;10.68;;;3.38;;
46719;SDS011;32452;51.382;-0.002;2023-08-31T06:35:50;9.43;;;3.22;;
46719;SDS011;32452;51.382;-0.002;2023-08-31T06:38:36;10.23;;;3.20;;
46719;SDS011;32452;51.382;-0.002;2023-08-31T06:41:22;7.25;;;2.90;;
46719;SDS011;32452;51.382;-0.002;2023-08-31T06:44:08;7.00;;;2.63;;
46719;SDS011;32452;51.382;-0.002;2023-08-31T06:46:53;8.20;;;3.38;;
46719;SDS011;32452;51.382;-0.002;2023-08-31T06:49:39;8.88;;;2.75;;
46719;SDS011;32452;51.382;-0.002;2023-08-31T06:52:25;8.38;;;3.63;;
46719;SDS011;32452;51.382;-0.002;2023-08-31T06:55:16;11.38;;;3.90;;
46719;SDS011;32452;51.382;-0.002;2023-08-31T06:58:03;9.25;;;3.28;;
46719;SDS011;32452;51.382;-0.002;2023-08-31T07:00:51;10.55;;;3.30;;
46719;SDS011;32452;51.382;-0.002;2023-08-31T07:03:37;7.93;;;3.28;;
46719;SDS011;32452;51.382;-0.002;2023-08-31T07:06:22;7.80;;;3.30;;
46719;SDS011;32452;51.382;-0.002;2023-08-31T07:09:08;11.73;;;3.40;;
46719;SDS011;32452;51.382;-0.002;2023-08-31T07:11:54;6.35;;;2.90;;
46719;SDS011;32452;51.382;-0.002;2023-08-31T07:14:39;9.48;;;3.30;;
46719;SDS011;32452;51.382;-0.002;2023-08-31T07:17:25;11.15;;;3.70;;
46719;SDS011;32452;51.382;-0.002;2023-08-31T07:20:11;9.75;;;3.40;;
46719;SDS011;32452;51.382;-0.002;2023-08-31T07:22:57;9.77;;;3.28;;
46719;SDS011;32452;51.382;-0.002;2023-08-31T07:25:44;12.18;;;3.42;;
46719;SDS011;32452;51.382;-0.002;2023-08-31T07:28:30;7.90;;;3.40;;
46719;SDS011;32452;51.382;-0.002;2023-08-31T07:31:16;9.02;;;3.13;;
46719;SDS011;32452;51.382;-0.002;2023-08-31T07:34:02;9.77;;;3.58;;
46719;SDS011;32452;51.382;-0.002;2023-08-31T07:36:48;12.43;;;3.63;;
46719;SDS011;32452;51.382;-0.002;2023-08-31T07:39:34;9.93;;;3.08;;
46719;SDS011;32452;51.382;-0.002;2023-08-31T07:42:20;10.13;;;2.85;;
46719;SDS011;32452;51.382;-0.002;2023-08-31T07:45:06;11.75;;;3.17;;
46719;SDS011;32452;51.382;-0.002;2023-08-31T07:47:52;7.15;;;2.88;;
46719;SDS011;32452;51.382;-0.002;2023-08-31T07:50:39;7.25;;;3.13;;
46719;SDS011;32452;51.382;-0.002;2023-08-31T07:53:29;6.68;;;2.88;;
46719;SDS011;32452;51.382;-0.002;2023-08-31T07:56:14;8.13;;;2.35;;
46719;SDS011;32452;51.382;-0.002;2023-08-31T07:59:00;5.95;;;2.20;;
46719;SDS011;32452;51.382;-0.002;2023-08-31T08:01:46;10.05;;;2.70;;
46719;SDS011;32452;51.382;-0.002;2023-08-31T08:04:33;7.32;;;2.75;;
46719;SDS011;32452;51.382;-0.002;2023-08-31T08:07:18;6.43;;;2.47;;
46719;SDS011;32452;51.382;-0.002;2023-08-31T08:10:05;6.43;;;2.55;;
46719;SDS011;32452;51.382;-0.002;2023-08-31T08:12:54;8.55;;;2.40;;
46719;SDS011;32452;51.382;-0.002;2023-08-31T08:15:41;7.25;;;2.35;;
46719;SDS011;32452;51.382;-0.002;2023-08-31T08:18:26;7.28;;;2.00;;
46719;SDS011;32452;51.382;-0.002;2023-08-31T08:21:13;7.65;;;2.15;;
46719;SDS011;32452;51.382;-0.002;2023-08-31T08:24:01;6.88;;;2.10;;
46719;SDS011;32452;51.382;-0.002;2023-08-31T08:26:48;6.47;;;2.33;;
46719;SDS011;32452;51.382;-0.002;2023-08-31T08:29:34;5.00;;;2.10;;
46719;SDS011;32452;51.382;-0.002;2023-08-31T08:32:20;7.10;;;2.15;;
46719;SDS011;32452;51.382;-0.002;2023-08-31T08:35:06;6.72;;;2.30;;
46719;SDS011;32452;51.382;-0.002;2023-08-31T08:37:52;7.80;;;2.10;;
46719;SDS011;32452;51.382;-0.002;2023-08-31T08:40:38;6.55;;;1.92;;
46719;SDS011;32452;51.382;-0.002;2023-08-31T08:43:24;9.85;;;2.08;;
46719;SDS011;32452;51.382;-0.002;2023-08-31T08:46:17;9.73;;;2.55;;
46719;SDS011;32452;51.382;-0.002;2023-08-31T08:49:03;8.30;;;1.98;;
46719;SDS011;32452;51.382;-0.002;2023-08-31T08:51:50;6.45;;;2.10;;
46719;SDS011;32452;51.382;-0.002;2023-08-31T08:54:37;7.97;;;2.10;;
46719;SDS011;32452;51.382;-0.002;2023-08-31T08:57:24;7.93;;;2.00;;
46719;SDS011;32452;51.382;-0.002;2023-08-31T09:00:10;9.90;;;2.60;;
46719;SDS011;32452;51.382;-0.002;2023-08-31T09:02:56;5.13;;;1.60;;
46719;SDS011;32452;51.382;-0.002;2023-08-31T09:05:44;8.05;;;1.90;;
46719;SDS011;32452;51.382;-0.002;2023-08-31T09:08:30;3.97;;;1.70;;
46719;SDS011;32452;51.382;-0.002;2023-08-31T09:11:22;4.18;;;1.60;;
46719;SDS011;32452;51.382;-0.002;2023-08-31T09:14:14;7.78;;;1.95;;
46719;SDS011;32452;51.382;-0.002;2023-08-31T09:17:04;8.40;;;2.15;;
46719;SDS011;32452;51.382;-0.002;2023-08-31T09:20:01;6.88;;;2.13;;
46719;SDS011;32452;51.382;-0.002;2023-08-31T09:22:49;9.07;;;2.20;;
46719;SDS011;32452;51.382;-0.002;2023-08-31T09:25:41;8.65;;;1.80;;
46719;SDS011;32452;51.382;-0.002;2023-08-31T09:28:34;6.32;;;2.00;;
46719;SDS011;32452;51.382;-0.002;2023-08-31T09:31:31;6.03;;;2.03;;
46719;SDS011;32452;51.382;-0.002;2023-08-31T09:34:17;6.00;;;2.40;;
46719;SDS011;32452;51.382;-0.002;2023-08-31T09:37:04;6.82;;;1.80;;
46719;SDS011;32452;51.382;-0.002;2023-08-31T09:39:51;9.70;;;2.65;;
46719;SDS011;32452;51.382;-0.002;2023-08-31T09:42:37;6.57;;;2.33;;
46719;SDS011;32452;51.382;-0.002;2023-08-31T09:45:25;4.82;;;2.30;;
46719;SDS011;32452;51.382;-0.002;2023-08-31T09:48:30;8.55;;;2.85;;
46719;SDS011;32452;51.382;-0.002;2023-08-31T09:51:16;7.40;;;2.97;;
46719;SDS011;32452;51.382;-0.002;2023-08-31T09:54:07;10.98;;;2.97;;
46719;SDS011;32452;51.382;-0.002;2023-08-31T09:56:57;9.07;;;2.63;;
46719;SDS011;32452;51.382;-0.002;2023-08-31T09:59:45;7.50;;;2.17;;
46719;SDS011;32452;51.382;-0.002;2023-08-31T10:02:32;7.82;;;2.70;;
46719;SDS011;32452;51.382;-0.002;2023-08-31T10:05:18;9.15;;;2.40;;
46719;SDS011;32452;51.382;-0.002;2023-08-31T10:08:04;6.45;;;2.60;;
46719;SDS011;32452;51.382;-0.002;2023-08-31T10:10:50;9.52;;;3.10;;
46719;SDS011;32452;51.382;-0.002;2023-08-31T10:13:37;8.05;;;2.95;;
46719;SDS011;32452;51.382;-0.002;2023-08-31T10:16:26;8.75;;;3.85;;
46719;SDS011;32452;51.382;-0.002;2023-08-31T10:19:12;10.50;;;4.05;;
46719;SDS011;32452;51.382;-0.002;2023-08-31T10:21:58;8.77;;;3.35;;
46719;SDS011;32452;51.382;-0.002;2023-08-31T10:25:02;10.30;;;4.22;;
46719;SDS011;32452;51.382;-0.002;2023-08-31T10:27:52;11.70;;;4.22;;
46719;SDS011;32452;51.382;-0.002;2023-08-31T10:30:39;10.02;;;3.38;;
46719;SDS011;32452;51.382;-0.002;2023-08-31T10:33:24;7.05;;;3.42;;
46719;SDS011;32452;51.382;-0.002;2023-08-31T10:36:17;8.93;;;3.83;;
46719;SDS011;32452;51.382;-0.002;2023-08-31T10:39:38;12.43;;;3.30;;
46719;SDS011;32452;51.382;-0.002;2023-08-31T10:42:23;5.95;;;2.90;;
46719;SDS011;32452;51.382;-0.002;2023-08-31T10:45:08;7.63;;;3.65;;
46719;SDS011;32452;51.382;-0.002;2023-08-31T10:47:54;9.60;;;3.70;;
46719;SDS011;32452;51.382;-0.002;2023-08-31T10:50:47;8.27;;;3.15;;
46719;SDS011;32452;51.382;-0.002;2023-08-31T10:53:32;9.60;;;3.40;;
46719;SDS011;32452;51.382;-0.002;2023-08-31T10:56:22;7.93;;;3.25;;
46719;SDS011;32452;51.382;-0.002;2023-08-31T10:59:14;7.07;;;2.92;;
46719;SDS011;32452;51.382;-0.002;2023-08-31T11:02:00;9.90;;;3.33;;
46719;SDS011;32452;51.382;-0.002;2023-08-31T11:05:34;8.45;;;2.88;;
46719;SDS011;32452;51.382;-0.002;2023-08-31T11:07:55;6.78;;;2.50;;
46719;SDS011;32452;51.382;-0.002;2023-08-31T11:10:45;4.63;;;2.53;;
46719;SDS011;32452;51.382;-0.002;2023-08-31T11:13:31;5.50;;;2.33;;
46719;SDS011;32452;51.382;-0.002;2023-08-31T11:16:16;12.35;;;2.88;;
46719;SDS011;32452;51.382;-0.002;2023-08-31T11:19:02;8.13;;;2.40;;
46719;SDS011;32452;51.382;-0.002;2023-08-31T11:21:49;8.38;;;2.42;;
46719;SDS011;32452;51.382;-0.002;2023-08-31T11:24:35;10.20;;;2.78;;
46719;SDS011;32452;51.382;-0.002;2023-08-31T11:27:20;10.10;;;3.00;;
46719;SDS011;32452;51.382;-0.002;2023-08-31T11:30:14;10.02;;;3.10;;
46719;SDS011;32452;51.382;-0.002;2023-08-31T11:33:03;6.78;;;1.95;;
46719;SDS011;32452;51.382;-0.002;2023-08-31T11:35:54;6.95;;;2.40;;
46719;SDS011;32452;51.382;-0.002;2023-08-31T11:38:40;7.68;;;2.03;;
46719;SDS011;32452;51.382;-0.002;2023-08-31T11:41:25;9.52;;;3.03;;
46719;SDS011;32452;51.382;-0.002;2023-08-31T11:44:17;8.63;;;2.40;;
46719;SDS011;32452;51.382;-0.002;2023-08-31T11:47:03;6.70;;;2.15;;
46719;SDS011;32452;51.382;-0.002;2023-08-31T11:49:49;5.63;;;2.08;;
46719;SDS011;32452;51.382;-0.002;2023-08-31T11:52:35;9.23;;;2.35;;
46719;SDS011;32452;51.382;-0.002;2023-08-31T11:55:21;7.00;;;2.08;;
46719;SDS011;32452;51.382;-0.002;2023-08-31T11:58:08;4.68;;;1.88;;
46719;SDS011;32452;51.382;-0.002;2023-08-31T12:00:57;8.82;;;3.08;;
46719;SDS011;32452;51.382;-0.002;2023-08-31T12:03:43;5.50;;;2.05;;
46719;SDS011;32452;51.382;-0.002;2023-08-31T12:06:34;8.05;;;2.30;;
46719;SDS011;32452;51.382;-0.002;2023-08-31T12:09:20;5.70;;;1.65;;
46719;SDS011;32452;51.382;-0.002;2023-08-31T12:12:07;7.57;;;2.95;;
46719;SDS011;32452;51.382;-0.002;2023-08-31T12:14:53;10.50;;;2.20;;
46719;SDS011;32452;51.382;-0.002;2023-08-31T12:17:38;9.82;;;2.35;;
46719;SDS011;32452;51.382;-0.002;2023-08-31T12:20:25;4.10;;;2.40;;
46719;SDS011;32452;51.382;-0.002;2023-08-31T12:23:14;6.03;;;2.00;;
46719;SDS011;32452;51.382;-0.002;2023-08-31T12:26:05;5.22;;;1.83;;
46719;SDS011;32452;51.382;-0.002;2023-08-31T12:28:52;7.82;;;1.92;;
46719;SDS011;32452;51.382;-0.002;2023-08-31T12:31:38;5.00;;;2.35;;
46719;SDS011;32452;51.382;-0.002;2023-08-31T12:34:24;6.47;;;2.13;;
46719;SDS011;32452;51.382;-0.002;2023-08-31T12:37:11;8.02;;;2.38;;
46719;SDS011;32452;51.382;-0.002;2023-08-31T12:39:56;3.83;;;1.80;;
46719;SDS011;32452;51.382;-0.002;2023-08-31T12:42:43;8.90;;;2.00;;
46719;SDS011;32452;51.382;-0.002;2023-08-31T12:45:28;8.73;;;2.60;;
46719;SDS011;32452;51.382;-0.002;2023-08-31T12:48:14;8.32;;;2.72;;
46719;SDS011;32452;51.382;-0.002;2023-08-31T12:51:00;9.20;;;2.78;;
46719;SDS011;32452;51.382;-0.002;2023-08-31T12:53:45;5.85;;;2.30;;
46719;SDS011;32452;51.382;-0.002;2023-08-31T12:56:33;6.15;;;2.33;;
46719;SDS011;32452;51.382;-0.002;2023-08-31T12:59:18;5.80;;;2.13;;
46719;SDS011;32452;51.382;-0.002;2023-08-31T13:02:04;5.03;;;2.13;;
46719;SDS011;32452;51.382;-0.002;2023-08-31T13:04:55;6.00;;;2.10;;
46719;SDS011;32452;51.382;-0.002;2023-08-31T13:07:41;10.93;;;2.35;;
46719;SDS011;32452;51.382;-0.002;2023-08-31T13:10:26;4.93;;;1.92;;
46719;SDS011;32452;51.382;-0.002;2023-08-31T13:13:12;5.13;;;2.00;;
46719;SDS011;32452;51.382;-0.002;2023-08-31T13:15:58;4.63;;;1.85;;
46719;SDS011;32452;51.382;-0.002;2023-08-31T13:18:44;4.95;;;1.80;;
46719;SDS011;32452;51.382;-0.002;2023-08-31T13:21:30;6.68;;;1.77;;
46719;SDS011;32452;51.382;-0.002;2023-08-31T13:24:15;5.07;;;1.77;;
46719;SDS011;32452;51.382;-0.002;2023-08-31T13:27:01;6.25;;;1.88;;
46719;SDS011;32452;51.382;-0.002;2023-08-31T13:29:47;5.28;;;1.63;;
46719;SDS011;32452;51.382;-0.002;2023-08-31T13:32:33;4.30;;;1.58;;
46719;SDS011;32452;51.382;-0.002;2023-08-31T13:35:19;5.25;;;2.15;;
46719;SDS011;32452;51.382;-0.002;2023-08-31T13:38:05;6.90;;;2.38;;
46719;SDS011;32452;51.382;-0.002;2023-08-31T13:40:54;9.45;;;2.40;;
46719;SDS011;32452;51.382;-0.002;2023-08-31T13:43:41;10.90;;;2.63;;
46719;SDS011;32452;51.382;-0.002;2023-08-31T13:46:27;7.38;;;2.13;;
46719;SDS011;32452;51.382;-0.002;2023-08-31T13:49:13;7.47;;;2.92;;
46719;SDS011;32452;51.382;-0.002;2023-08-31T13:51:59;6.47;;;2.88;;
46719;SDS011;32452;51.382;-0.002;2023-08-31T13:54:45;7.80;;;2.88;;
46719;SDS011;32452;51.382;-0.002;2023-08-31T13:57:31;5.85;;;2.42;;
46719;SDS011;32452;51.382;-0.002;2023-08-31T14:00:17;9.40;;;3.20;;
46719;SDS011;32452;51.382;-0.002;2023-08-31T14:03:03;4.10;;;2.40;;
46719;SDS011;32452;51.382;-0.002;2023-08-31T14:05:50;9.20;;;3.17;;
46719;SDS011;32452;51.382;-0.002;2023-08-31T14:08:36;9.55;;;2.50;;
46719;SDS011;32452;51.382;-0.002;2023-08-31T14:11:21;6.50;;;2.28;;
46719;SDS011;32452;51.382;-0.002;2023-08-31T14:14:07;3.80;;;1.60;;
46719;SDS011;32452;51.382;-0.002;2023-08-31T14:16:56;4.18;;;1.90;;
46719;SDS011;32452;51.382;-0.002;2023-08-31T14:19:42;6.53;;;1.65;;
46719;SDS011;32452;51.382;-0.002;2023-08-31T14:22:28;5.35;;;2.28;;
46719;SDS011;32452;51.382;-0.002;2023-08-31T14:25:14;5.35;;;2.20;;
46719;SDS011;32452;51.382;-0.002;2023-08-31T14:28:00;5.55;;;1.90;;
46719;SDS011;32452;51.382;-0.002;2023-08-31T14:30:45;5.50;;;1.95;;
46719;SDS011;32452;51.382;-0.002;2023-08-31T14:33:31;5.97;;;1.63;;
46719;SDS011;32452;51.382;-0.002;2023-08-31T14:36:17;3.78;;;1.90;;
46719;SDS011;32452;51.382;-0.002;2023-08-31T14:39:02;6.30;;;2.05;;
46719;SDS011;32452;51.382;-0.002;2023-08-31T14:41:48;8.68;;;2.45;;
46719;SDS011;32452;51.382;-0.002;2023-08-31T14:44:33;5.38;;;1.83;;
46719;SDS011;32452;51.382;-0.002;2023-08-31T14:47:19;4.13;;;1.88;;
46719;SDS011;32452;51.382;-0.002;2023-08-31T14:50:05;5.57;;;1.50;;
46719;SDS011;32452;51.382;-0.002;2023-08-31T14:52:51;4.07;;;1.45;;
46719;SDS011;32452;51.382;-0.002;2023-08-31T14:55:36;5.20;;;2.22;;
46719;SDS011;32452;51.382;-0.002;2023-08-31T14:58:22;5.75;;;1.65;;
46719;SDS011;32452;51.382;-0.002;2023-08-31T15:01:08;6.80;;;1.67;;
46719;SDS011;32452;51.382;-0.002;2023-08-31T15:03:53;6.70;;;1.70;;
46719;SDS011;32452;51.382;-0.002;2023-08-31T15:06:39;4.05;;;1.80;;
46719;SDS011;32452;51.382;-0.002;2023-08-31T15:09:24;8.00;;;2.17;;
46719;SDS011;32452;51.382;-0.002;2023-08-31T15:12:10;8.02;;;1.67;;
46719;SDS011;32452;51.382;-0.002;2023-08-31T15:14:56;5.13;;;1.60;;
46719;SDS011;32452;51.382;-0.002;2023-08-31T15:17:42;6.95;;;1.60;;
46719;SDS011;32452;51.382;-0.002;2023-08-31T15:20:28;5.95;;;1.50;;
46719;SDS011;32452;51.382;-0.002;2023-08-31T15:23:13;4.35;;;1.48;;
46719;SDS011;32452;51.382;-0.002;2023-08-31T15:26:00;4.55;;;1.60;;
46719;SDS011;32452;51.382;-0.002;2023-08-31T15:28:48;5.68;;;1.63;;
46719;SDS011;32452;51.382;-0.002;2023-08-31T15:31:33;5.50;;;1.80;;
46719;SDS011;32452;51.382;-0.002;2023-08-31T15:34:18;3.85;;;1.70;;
46719;SDS011;32452;51.382;-0.002;2023-08-31T15:37:04;6.78;;;2.00;;
46719;SDS011;32452;51.382;-0.002;2023-08-31T15:39:50;5.95;;;1.80;;
46719;SDS011;32452;51.382;-0.002;2023-08-31T15:42:36;3.95;;;1.52;;
46719;SDS011;32452;51.382;-0.002;2023-08-31T15:45:22;5.07;;;1.88;;
46719;SDS011;32452;51.382;-0.002;2023-08-31T15:48:08;3.08;;;1.40;;
46719;SDS011;32452;51.382;-0.002;2023-08-31T15:50:57;5.05;;;1.40;;
46719;SDS011;32452;51.382;-0.002;2023-08-31T15:53:43;7.85;;;1.95;;
46719;SDS011;32452;51.382;-0.002;2023-08-31T15:56:29;6.00;;;1.80;;
46719;SDS011;32452;51.382;-0.002;2023-08-31T15:59:15;6.22;;;1.73;;
46719;SDS011;32452;51.382;-0.002;2023-08-31T16:02:00;3.95;;;1.58;;
46719;SDS011;32452;51.382;-0.002;2023-08-31T16:04:46;8.05;;;1.40;;
46719;SDS011;32452;51.382;-0.002;2023-08-31T16:07:33;6.50;;;1.58;;
46719;SDS011;32452;51.382;-0.002;2023-08-31T16:10:19;4.32;;;1.73;;
46719;SDS011;32452;51.382;-0.002;2023-08-31T16:13:05;7.60;;;2.17;;
46719;SDS011;32452;51.382;-0.002;2023-08-31T16:15:51;5.38;;;1.98;;
46719;SDS011;32452;51.382;-0.002;2023-08-31T16:18:36;5.82;;;1.80;;
46719;SDS011;32452;51.382;-0.002;2023-08-31T16:21:22;4.28;;;1.30;;
46719;SDS011;32452;51.382;-0.002;2023-08-31T16:24:07;2.22;;;0.73;;
46719;SDS011;32452;51.382;-0.002;2023-08-31T16:26:53;2.80;;;0.90;;
46719;SDS011;32452;51.382;-0.002;2023-08-31T16:29:39;3.78;;;1.00;;
46719;SDS011;32452;51.382;-0.002;2023-08-31T16:32:24;5.45;;;1.40;;
46719;SDS011;32452;51.382;-0.002;2023-08-31T16:35:13;1.67;;;0.85;;
46719;SDS011;32452;51.382;-0.002;2023-08-31T16:37:59;2.10;;;0.77;;